Princeville, North Carolina
Current Conditions -  °F | °C
As of 1:55 AM on Monday 24 Nov 2014 (Local Time) from KETC Reporting Station
Overcast Overcast  
Wind Chill: 68°   Ceiling: 1100
Heat Index: 68°   Visibility: 10mi
Dew Point: 65°   Wind: 10mph
Humidity: 92%   Direction: 160°SSE
Pressure: 29.8"   Gusts: 21mph
Location:  35.9133°N, 77.5633°W
Report Text: KETC 240655Z AUTO 16009G18KT 10SM OVC011 20/18 A2980 RMK AO2 T01980184
Loading
Personal Weather Stations






























Interactive Weather Map New forecast layout! Learn more

10-Day Weather Forecast

Advertisements
Track Severe Weather on mobile